Saturday, November 18, 2017, 6:21 PM EST
Back to Local

KBUF, Greater Buffalo International Airport

Location: Buffalo, NY, United States Lat: 42.933
Local Time: 6:21 PM EST (23:21 GMT) Lon: -78.733
Time Zone: US/Eastern Elev: 725 ft

Show me the last for .
Show Decoded

2017-11-18 17:54 METAR KBUF 182254Z 11005KT 5SM RA BR OVC020 08/07 A2928 RMK AO2 SLP916 P0015
                 T00830072 $ =
2017-11-18 16:54 METAR KBUF 182154Z 16004KT 5SM RA BR SCT015 OVC022 08/08 A2931 RMK AO2 SLP929
                 P0007 T00830078 $ =
2017-11-18 15:54 METAR KBUF 182054Z 16009KT 3SM RA BR BKN015 OVC020 09/07 A2934 RMK AO2 RAB34
                 SLP939 P0001 60001 T00890072 56041 =
2017-11-18 15:40 METAR KBUF 182040Z 18010KT 10SM -RA BKN015 OVC020 09/07 A2935 RMK AO2 RAB34
                 P0000 T00940067 =
2017-11-18 14:54 METAR KBUF 181954Z 18008KT 10SM BKN013 OVC018 09/07 A2936 RMK AO2 SLP945
                 T00940067 =
2017-11-18 13:54 METAR KBUF 181854Z 20010KT 10SM BKN012 OVC018 09/07 A2941 RMK AO2 SLP964
                 T00890067 =
2017-11-18 12:54 METAR KBUF 181754Z 21011KT 10SM OVC012 08/06 A2946 RMK AO2 SLP982 60000
                 T00830061 10083 20067 56028 =
2017-11-18 11:54 METAR KBUF 181654Z 20012KT 10SM BKN013 OVC020 08/06 A2949 RMK AO2 SLP991
                 T00830056 =
2017-11-18 11:36 METAR KBUF 181636Z 20011KT 10SM BKN013 OVC020 08/06 A2949 RMK AO2 T00830056 =
2017-11-18 10:54 METAR KBUF 181554Z 21013G20KT 10SM BKN016 OVC020 08/05 A2952 RMK AO2 SLP001
                 T00830050 =
2017-11-18 09:54 METAR KBUF 181454Z 22012G24KT 10SM OVC021 08/04 A2955 RMK AO2 SLP011 60000
                 T00830044 56021 =
2017-11-18 08:54 METAR KBUF 181354Z 21020G27KT 10SM OVC020 08/04 A2955 RMK AO2 PK WND 22027/1345
                 SLP013 T00830039 =
2017-11-18 08:15 METAR KBUF 181315Z 20016G21KT 10SM BKN024 OVC035 07/02 A2956 RMK AO2 T00720022 =
2017-11-18 07:54 METAR KBUF 181254Z 20014KT 10SM SCT027 OVC038 07/02 A2957 RMK AO2 PK WND
                 20026/1219 RAB22E36 SLP019 P0000 T00670017 =
2017-11-18 06:54 METAR KBUF 181154Z 24008KT 10SM BKN046 OVC090 07/M01 A2961 RMK AO2 RAE54 SLP033
                 P0000 60000 T00721006 10083 20006 58025 =
2017-11-18 05:54 METAR KBUF 181054Z 20010KT 10SM -RA SCT055 OVC080 07/M03 A2964 RMK AO2 RAB45
                 SLP042 P0000 T00721028 =
2017-11-18 04:54 METAR KBUF 180954Z 22004KT 10SM FEW070 SCT120 OVC140 04/M05 A2968 RMK AO2 SLP057
                 T00441050 =
2017-11-18 03:54 METAR KBUF 180854Z 12004KT 10SM FEW070 SCT110 OVC140 03/M04 A2969 RMK AO2 PRESFR
                 SLP059 T00331039 56045 =
2017-11-18 02:54 METAR KBUF 180754Z 14007KT 10SM OVC110 03/M04 A2974 RMK AO2 SLP077 T00281044 =
2017-11-18 01:54 METAR KBUF 180654Z 12007KT 10SM FEW080 SCT110 BKN170 OVC240 02/M03 A2976 RMK AO2
                 SLP087 T00171033 =
2017-11-18 00:54 METAR KBUF 180554Z 13003KT 10SM FEW100 SCT140 BKN170 OVC240 01/M03 A2982 RMK AO2
                 SLP106 T00111033 10017 20006 58040 =
2017-11-17 23:54 METAR KBUF 180454Z 13005KT 10SM FEW110 BKN140 BKN240 01/M03 A2988 RMK AO2 SLP124
                 T00111028 400221011 =
2017-11-17 22:54 METAR KBUF 180354Z 13005KT 10SM FEW120 BKN140 BKN250 01/M03 A2991 RMK AO2 SLP137
                 T00061033 =
2017-11-17 21:54 METAR KBUF 180254Z 12007KT 10SM SCT120 BKN150 BKN250 01/M03 A2994 RMK AO2 SLP147
                 T00111028 58033 =
2017-11-17 20:54 METAR KBUF 180154Z 12006KT 10SM FEW100 SCT140 SCT280 01/M03 A2997 RMK AO2 SLP158
                 T00111033 =
2017-11-17 19:54 METAR KBUF 180054Z 12007KT 10SM BKN140 01/M03 A3001 RMK AO2 SLP170 T00111033 =
2017-11-17 18:54 METAR KBUF 172354Z 09006KT 10SM OVC140 02/M03 A3004 RMK AO2 SLP181 T00171033
                 10022 20006 58025 =

Support USWX by starting your Amazon purchase here.